createdAt,value
2022-12-24T00:01:09.757Z,78.48
2022-12-24T00:03:39.375Z,79.82
2022-12-24T00:06:08.026Z,79.31
2022-12-24T00:08:37.778Z,79.86
2022-12-24T00:11:05.847Z,79.94
2022-12-24T00:13:34.036Z,79.96
2022-12-24T00:16:02.486Z,79.90
2022-12-24T00:18:30.279Z,78.45
2022-12-24T00:20:58.025Z,78.45
2022-12-24T00:23:25.897Z,78.89
2022-12-24T00:25:55.445Z,78.36
2022-12-24T00:28:23.763Z,78.16
2022-12-24T00:30:51.589Z,78.44
2022-12-24T00:33:24.224Z,77.43
2022-12-24T00:35:53.794Z,78.36
2022-12-24T00:38:21.655Z,78.59
2022-12-24T00:40:49.399Z,77.12
2022-12-24T00:43:18.554Z,76.95
2022-12-24T00:45:46.290Z,75.39
2022-12-24T00:48:14.118Z,76.02
2022-12-24T00:50:41.918Z,76.25
2022-12-24T00:53:09.750Z,75.16
2022-12-24T00:55:37.510Z,74.94
2022-12-24T00:58:05.343Z,76.19
2022-12-24T01:00:35.072Z,77.08
2022-12-24T01:03:02.854Z,76.65
2022-12-24T01:05:29.631Z,77.67
2022-12-24T01:07:57.398Z,76.66
2022-12-24T01:10:25.259Z,76.38
2022-12-24T01:12:53.108Z,75.78
2022-12-24T01:15:21.014Z,75.82
2022-12-24T01:17:50.091Z,76.53
2022-12-24T01:20:18.367Z,76.47
2022-12-24T01:22:46.643Z,75.76
2022-12-24T01:25:15.872Z,75.92
2022-12-24T01:27:43.679Z,76.23
2022-12-24T01:30:14.933Z,75.27
2022-12-24T01:32:43.248Z,74.94
2022-12-24T01:35:12.910Z,74.99
2022-12-24T01:37:41.075Z,75.26
2022-12-24T01:40:25.734Z,76.33
2022-12-24T01:43:11.586Z,75.04
2022-12-24T01:45:47.122Z,75.10
2022-12-24T01:48:23.250Z,75.16
2022-12-24T01:50:57.255Z,75.39
2022-12-24T01:53:25.412Z,75.44
2022-12-24T01:55:54.152Z,75.57
2022-12-24T01:58:25.217Z,74.56
2022-12-24T02:00:53.045Z,74.42
2022-12-24T02:03:22.405Z,74.89
2022-12-24T02:05:53.439Z,73.82
2022-12-24T02:08:21.773Z,74.66
2022-12-24T02:10:50.497Z,73.78
2022-12-24T02:13:22.164Z,73.94
2022-12-24T02:16:01.065Z,74.63
2022-12-24T02:18:38.660Z,74.34
2022-12-24T02:21:45.122Z,75.21
2022-12-24T02:24:33.651Z,75.75
2022-12-24T02:27:20.294Z,75.08
2022-12-24T02:30:05.084Z,74.50
2022-12-24T02:32:40.717Z,75.25
2022-12-24T02:35:14.476Z,75.80
2022-12-24T02:37:49.881Z,75.86
2022-12-24T02:40:22.992Z,75.18
2022-12-24T02:42:56.062Z,75.03
2022-12-24T02:45:31.045Z,75.85
2022-12-24T02:47:59.575Z,75.34
2022-12-24T02:50:28.438Z,75.08
2022-12-24T02:52:56.349Z,75.27
2022-12-24T02:55:28.929Z,75.27
2022-12-24T02:58:12.037Z,75.14
2022-12-24T03:01:17.258Z,75.61
2022-12-24T03:04:01.802Z,74.88
2022-12-24T03:06:38.371Z,75.49
2022-12-24T03:09:15.365Z,74.78
2022-12-24T03:11:49.355Z,74.62
2022-12-24T03:14:18.514Z,74.09
2022-12-24T03:16:48.446Z,74.75
2022-12-24T03:19:17.036Z,74.28
2022-12-24T03:21:46.514Z,74.33
2022-12-24T03:24:14.324Z,74.29
2022-12-24T03:26:43.545Z,73.89
2022-12-24T03:29:11.868Z,74.58
2022-12-24T03:31:44.843Z,74.88
2022-12-24T03:34:15.609Z,75.46
2022-12-24T03:36:43.895Z,75.04
2022-12-24T03:39:12.077Z,75.71
2022-12-24T03:41:39.882Z,75.33
2022-12-24T03:44:07.689Z,75.16
2022-12-24T03:46:35.567Z,74.83
2022-12-24T03:49:03.416Z,74.84
2022-12-24T03:51:33.485Z,74.93
2022-12-24T03:54:01.901Z,74.45
2022-12-24T03:56:29.806Z,74.47
2022-12-24T03:58:57.652Z,74.44
2022-12-24T04:01:25.635Z,74.17
2022-12-24T04:03:53.642Z,74.24
2022-12-24T04:06:21.564Z,74.72
2022-12-24T04:08:50.757Z,74.07
2022-12-24T04:11:19.118Z,75.02
2022-12-24T04:13:50.319Z,74.93
2022-12-24T04:16:18.505Z,74.44
2022-12-24T04:18:47.508Z,74.59
2022-12-24T04:21:15.334Z,74.84
2022-12-24T04:23:43.845Z,75.17
2022-12-24T04:26:14.176Z,75.46
2022-12-24T04:28:43.466Z,75.87
2022-12-24T04:31:16.715Z,75.55
2022-12-24T04:33:45.131Z,75.71
2022-12-24T04:36:17.112Z,76.05
2022-12-24T04:38:45.743Z,76.39
2022-12-24T04:41:23.089Z,76.55
2022-12-24T04:43:52.959Z,76.35
2022-12-24T04:46:23.173Z,75.86
2022-12-24T04:48:53.060Z,75.70
2022-12-24T04:51:22.093Z,75.43
2022-12-24T04:53:50.332Z,75.89
2022-12-24T04:56:21.397Z,74.98
2022-12-24T04:58:49.779Z,75.47
2022-12-24T05:01:19.943Z,75.23
2022-12-24T05:03:48.160Z,75.29
2022-12-24T05:06:18.674Z,75.02
2022-12-24T05:08:46.663Z,75.47
2022-12-24T05:11:15.713Z,75.84
2022-12-24T05:13:47.683Z,75.43
2022-12-24T05:16:17.548Z,76.13
2022-12-24T05:18:46.075Z,77.26
2022-12-24T05:21:16.890Z,77.14
2022-12-24T05:24:02.655Z,76.50
2022-12-24T05:26:33.420Z,78.01
2022-12-24T05:29:03.569Z,77.63
2022-12-24T05:31:33.484Z,78.15
2022-12-24T05:34:01.898Z,78.43
2022-12-24T05:36:30.303Z,78.31
2022-12-24T05:38:58.352Z,78.65
2022-12-24T05:41:26.378Z,78.82
2022-12-24T05:43:54.207Z,79.71
2022-12-24T05:46:24.861Z,79.37
2022-12-24T05:48:53.780Z,79.87
2022-12-24T05:51:23.559Z,79.67
2022-12-24T05:53:52.539Z,79.75
2022-12-24T05:56:22.160Z,80.10
2022-12-24T05:58:50.780Z,79.61
2022-12-24T06:01:19.152Z,80.03
2022-12-24T06:03:49.728Z,79.44
2022-12-24T06:06:20.844Z,79.77
2022-12-24T06:08:49.735Z,79.52
2022-12-24T06:11:20.171Z,79.97
2022-12-24T06:13:48.266Z,79.96
2022-12-24T06:16:18.398Z,80.20
2022-12-24T06:18:48.213Z,80.02
2022-12-24T06:21:16.465Z,79.83
2022-12-24T06:23:46.527Z,79.91
2022-12-24T06:26:16.900Z,80.19
2022-12-24T06:28:45.614Z,79.91
2022-12-24T06:31:15.525Z,79.42
2022-12-24T06:33:43.384Z,79.90
2022-12-24T06:36:17.854Z,80.31
2022-12-24T06:38:46.458Z,80.28
2022-12-24T06:41:14.808Z,80.52
2022-12-24T06:43:46.017Z,80.30
2022-12-24T06:46:14.263Z,79.92
2022-12-24T06:48:42.102Z,80.52
2022-12-24T06:51:09.843Z,80.23
2022-12-24T06:53:39.619Z,79.98
2022-12-24T06:56:09.892Z,79.78
2022-12-24T06:58:38.325Z,80.17
2022-12-24T07:01:07.821Z,78.87
2022-12-24T07:03:35.871Z,79.64
2022-12-24T07:06:03.890Z,79.91
2022-12-24T07:08:33.592Z,80.62
2022-12-24T07:11:03.152Z,80.62
2022-12-24T07:13:32.084Z,81.96
2022-12-24T07:16:00.100Z,80.72
2022-12-24T07:18:28.841Z,81.13
2022-12-24T07:20:56.815Z,81.24
2022-12-24T07:23:24.683Z,81.41
2022-12-24T07:25:52.593Z,81.54
2022-12-24T07:28:27.543Z,81.24
2022-12-24T07:30:56.099Z,81.22
2022-12-24T07:33:24.233Z,80.60
2022-12-24T07:36:02.153Z,80.18
2022-12-24T07:38:31.508Z,81.03
2022-12-24T07:41:00.034Z,80.28
2022-12-24T07:43:29.333Z,79.83
2022-12-24T07:45:58.039Z,80.23
2022-12-24T07:48:27.805Z,80.45
2022-12-24T07:50:55.763Z,79.51
2022-12-24T07:53:24.268Z,80.48
2022-12-24T07:55:52.112Z,81.02
2022-12-24T07:58:20.078Z,79.97
2022-12-24T08:00:49.521Z,80.09
2022-12-24T08:03:18.476Z,80.43
2022-12-24T08:05:47.017Z,80.25
2022-12-24T08:08:14.874Z,80.47
2022-12-24T08:10:43.737Z,80.00
2022-12-24T08:13:11.706Z,80.20
2022-12-24T08:15:39.528Z,79.80
2022-12-24T08:18:09.142Z,80.16
2022-12-24T08:20:39.229Z,79.64
2022-12-24T08:23:07.275Z,78.71
2022-12-24T08:25:35.447Z,79.72
2022-12-24T08:28:03.692Z,79.99
2022-12-24T08:30:31.487Z,79.72
2022-12-24T08:32:59.239Z,79.59
2022-12-24T08:35:28.355Z,79.62
2022-12-24T08:37:56.096Z,79.61
2022-12-24T08:40:24.038Z,79.55
2022-12-24T08:42:51.853Z,79.85
2022-12-24T08:45:19.976Z,79.38
2022-12-24T08:47:50.763Z,79.51
2022-12-24T08:50:18.705Z,79.67
2022-12-24T08:52:54.063Z,81.35
2022-12-24T08:55:23.850Z,82.43
2022-12-24T08:57:51.700Z,83.77
2022-12-24T09:00:20.135Z,85.46
2022-12-24T09:02:48.006Z,87.67
2022-12-24T09:05:16.105Z,88.17
2022-12-24T09:07:44.004Z,88.47
2022-12-24T09:10:13.557Z,88.80
2022-12-24T09:12:41.387Z,89.36
2022-12-24T09:15:10.412Z,89.39
2022-12-24T09:17:38.710Z,89.57
2022-12-24T09:20:07.910Z,90.03
2022-12-24T09:22:37.108Z,89.78
2022-12-24T09:25:07.173Z,90.06
2022-12-24T09:27:36.324Z,89.35
2022-12-24T09:30:06.412Z,89.60
2022-12-24T09:32:34.293Z,89.11
2022-12-24T09:35:02.254Z,89.08
2022-12-24T09:37:30.028Z,89.31
2022-12-24T09:39:58.013Z,89.36
2022-12-24T09:42:42.466Z,90.13
2022-12-24T09:45:18.009Z,89.86
2022-12-24T09:47:51.133Z,90.90
2022-12-24T09:50:30.212Z,91.30
2022-12-24T09:52:59.650Z,91.29
2022-12-24T09:55:31.215Z,91.62
2022-12-24T09:58:03.391Z,92.06
2022-12-24T10:00:34.855Z,91.31
2022-12-24T10:03:02.806Z,90.63
2022-12-24T10:05:38.436Z,89.57
2022-12-24T10:08:14.389Z,90.47
2022-12-24T10:10:51.832Z,90.16
2022-12-24T10:13:31.624Z,90.67
2022-12-24T10:16:04.266Z,90.76
2022-12-24T10:18:44.243Z,90.33
2022-12-24T10:21:17.583Z,90.88
2022-12-24T10:23:50.101Z,89.88
2022-12-24T10:26:25.902Z,89.38
2022-12-24T10:28:59.626Z,89.59
2022-12-24T10:31:30.663Z,89.10
2022-12-24T10:34:03.070Z,87.99
2022-12-24T10:36:32.157Z,87.82
2022-12-24T10:39:00.606Z,87.69
2022-12-24T10:41:30.167Z,87.22
2022-12-24T10:44:00.974Z,87.07
2022-12-24T10:46:36.080Z,86.76
2022-12-24T10:49:15.515Z,87.02
2022-12-24T10:51:48.086Z,85.88
2022-12-24T10:54:26.220Z,85.16
2022-12-24T10:56:58.603Z,85.44
2022-12-24T10:59:30.787Z,86.19
2022-12-24T11:02:00.040Z,85.22
2022-12-24T11:04:30.167Z,85.40
2022-12-24T11:06:59.810Z,84.25
2022-12-24T11:09:30.428Z,83.94
2022-12-24T11:12:03.883Z,84.46
2022-12-24T11:14:39.829Z,83.79
2022-12-24T11:17:07.799Z,82.29
2022-12-24T11:19:38.760Z,83.37
2022-12-24T11:22:08.961Z,81.91
2022-12-24T11:24:38.991Z,81.88
2022-12-24T11:27:32.137Z,82.68
2022-12-24T11:30:23.771Z,81.13
2022-12-24T11:33:12.944Z,79.54
2022-12-24T11:35:44.579Z,80.06
2022-12-24T11:38:14.171Z,80.08
2022-12-24T11:40:44.833Z,81.08
2022-12-24T11:43:18.216Z,80.08
2022-12-24T11:45:55.791Z,79.08
2022-12-24T11:48:29.711Z,78.37
2022-12-24T11:50:59.466Z,77.53
2022-12-24T11:53:31.790Z,78.36
2022-12-24T11:56:03.620Z,76.89
2022-12-24T11:58:38.735Z,77.42
2022-12-24T12:01:17.220Z,77.10
2022-12-24T12:03:49.830Z,77.53
2022-12-24T12:06:28.583Z,78.02
2022-12-24T12:08:58.633Z,77.85
2022-12-24T12:11:28.431Z,78.39
2022-12-24T12:13:59.315Z,77.82
2022-12-24T12:16:54.276Z,79.05
2022-12-24T12:19:26.095Z,79.64
2022-12-24T12:21:54.231Z,78.79
2022-12-24T12:24:31.783Z,78.46
2022-12-24T12:27:08.877Z,78.71
2022-12-24T12:29:43.241Z,78.18
2022-12-24T12:32:22.616Z,78.55
2022-12-24T12:35:01.498Z,78.33
2022-12-24T12:37:36.587Z,78.75
2022-12-24T12:40:05.321Z,79.05
2022-12-24T12:42:35.856Z,79.50
2022-12-24T12:45:36.906Z,78.43
2022-12-24T12:48:30.710Z,77.76
2022-12-24T12:51:08.337Z,78.79
2022-12-24T12:53:49.116Z,76.90
2022-12-24T12:56:27.239Z,77.33
2022-12-24T12:59:01.340Z,76.56
2022-12-24T13:01:41.184Z,75.80
2022-12-24T13:04:35.796Z,75.50
2022-12-24T13:07:31.439Z,75.74
2022-12-24T13:10:24.663Z,75.56
2022-12-24T13:13:16.997Z,76.46
2022-12-24T13:16:03.152Z,77.40
2022-12-24T13:18:53.245Z,77.48
2022-12-24T13:21:26.580Z,77.60
2022-12-24T13:24:06.891Z,78.20
2022-12-24T13:26:34.978Z,78.52
2022-12-24T13:29:36.023Z,78.43
2022-12-24T13:32:40.121Z,78.34
2022-12-24T13:35:43.604Z,78.39
2022-12-24T13:38:42.213Z,78.06
2022-12-24T13:41:42.835Z,78.20
2022-12-24T13:44:22.200Z,78.09
2022-12-24T13:46:56.426Z,78.38
2022-12-24T13:49:29.862Z,79.06
2022-12-24T13:52:19.324Z,79.23
2022-12-24T13:55:01.476Z,78.88
2022-12-24T13:57:34.234Z,78.98
2022-12-24T14:00:05.634Z,79.00
2022-12-24T14:02:38.375Z,79.75
2022-12-24T14:05:21.455Z,79.31
2022-12-24T14:07:51.616Z,79.51
2022-12-24T14:10:25.012Z,80.38
2022-12-24T14:12:53.789Z,80.63
2022-12-24T14:16:04.466Z,80.11
2022-12-24T14:18:36.292Z,80.65
2022-12-24T14:21:05.706Z,80.93
2022-12-24T14:23:52.499Z,80.23
2022-12-24T14:26:24.097Z,80.67
2022-12-24T14:28:56.650Z,80.40
2022-12-24T14:31:24.986Z,80.76
2022-12-24T14:33:53.109Z,81.00
2022-12-24T14:36:24.489Z,81.14
2022-12-24T14:38:52.460Z,82.05
2022-12-24T14:41:33.667Z,82.73
2022-12-24T14:44:11.226Z,82.41
2022-12-24T14:46:45.023Z,82.46
2022-12-24T14:49:23.103Z,82.50
2022-12-24T14:52:01.405Z,82.59
2022-12-24T14:54:39.334Z,82.43
2022-12-24T14:57:23.406Z,82.58
2022-12-24T14:59:53.740Z,82.63
2022-12-24T15:02:31.459Z,82.65
2022-12-24T15:05:07.432Z,82.66
2022-12-24T15:07:39.526Z,82.86
2022-12-24T15:10:28.620Z,83.81
2022-12-24T15:13:02.580Z,83.79
2022-12-24T15:15:30.862Z,84.15
2022-12-24T15:18:00.154Z,83.86
2022-12-24T15:20:30.460Z,84.54
2022-12-24T15:23:00.098Z,84.03
2022-12-24T15:25:30.852Z,84.20
2022-12-24T15:28:00.389Z,84.21
2022-12-24T15:30:30.893Z,84.50
2022-12-24T15:32:59.348Z,84.48
2022-12-24T15:35:32.596Z,85.03
2022-12-24T15:38:01.324Z,85.25
2022-12-24T15:40:31.658Z,85.06
2022-12-24T15:43:01.176Z,84.90
2022-12-24T15:45:36.399Z,85.32
2022-12-24T15:48:09.886Z,85.67
2022-12-24T15:50:39.539Z,85.30
2022-12-24T15:53:20.422Z,84.96
2022-12-24T15:56:06.284Z,84.04
2022-12-24T15:58:37.010Z,84.33
2022-12-24T16:01:23.881Z,83.94
2022-12-24T16:04:00.926Z,84.12
2022-12-24T16:06:29.471Z,84.97
2022-12-24T16:08:58.692Z,85.10
2022-12-24T16:11:34.254Z,85.01
2022-12-24T16:14:08.297Z,85.73
2022-12-24T16:16:39.438Z,85.63
2022-12-24T16:19:08.779Z,85.90
2022-12-24T16:21:39.086Z,86.09
2022-12-24T16:24:14.813Z,85.76
2022-12-24T16:26:45.523Z,86.39
2022-12-24T16:29:15.446Z,86.31
2022-12-24T16:31:46.522Z,86.61
2022-12-24T16:34:17.038Z,87.20
2022-12-24T16:36:46.897Z,86.88
2022-12-24T16:39:25.910Z,86.35
2022-12-24T16:42:12.755Z,87.58
2022-12-24T16:44:42.647Z,87.55
2022-12-24T16:47:14.015Z,87.94
2022-12-24T16:49:41.882Z,87.98
2022-12-24T16:52:18.535Z,88.32
2022-12-24T16:54:49.318Z,87.06
2022-12-24T16:57:20.038Z,87.67
2022-12-24T16:59:49.315Z,87.80
2022-12-24T17:02:24.818Z,87.72
2022-12-24T17:04:53.040Z,87.76
2022-12-24T17:07:21.936Z,87.80
2022-12-24T17:09:50.039Z,88.29
2022-12-24T17:12:17.910Z,88.26
2022-12-24T17:14:45.741Z,88.21
2022-12-24T17:17:22.808Z,88.52
2022-12-24T17:19:50.824Z,89.03
2022-12-24T17:22:18.940Z,88.44
2022-12-24T17:24:47.107Z,88.31
2022-12-24T17:27:15.092Z,88.12
2022-12-24T17:29:43.339Z,88.02
2022-12-24T17:32:11.318Z,88.00
2022-12-24T17:34:41.429Z,87.97
2022-12-24T17:37:09.374Z,88.41
2022-12-24T17:39:37.219Z,88.38
2022-12-24T17:42:05.567Z,88.17
2022-12-24T17:44:33.446Z,87.81
2022-12-24T17:47:01.918Z,88.62
2022-12-24T17:49:29.983Z,87.85
2022-12-24T17:51:59.260Z,88.20
2022-12-24T17:54:27.087Z,88.19
2022-12-24T17:56:54.954Z,87.90
2022-12-24T17:59:22.780Z,88.13
2022-12-24T18:01:50.597Z,88.36
2022-12-24T18:04:18.460Z,88.58
2022-12-24T18:06:49.599Z,88.51
2022-12-24T18:09:19.425Z,88.24
2022-12-24T18:11:47.330Z,88.20
2022-12-24T18:14:15.463Z,87.75
2022-12-24T18:16:43.783Z,88.58
2022-12-24T18:19:12.880Z,88.25
2022-12-24T18:21:41.230Z,88.35
2022-12-24T18:24:10.034Z,88.46
2022-12-24T18:26:39.359Z,87.92
2022-12-24T18:29:08.677Z,88.41
2022-12-24T18:31:36.947Z,88.00
2022-12-24T18:34:06.837Z,88.41
2022-12-24T18:36:35.149Z,88.82
2022-12-24T18:39:03.072Z,88.37
2022-12-24T18:41:32.168Z,89.23
2022-12-24T18:44:01.358Z,88.70
2022-12-24T18:46:32.685Z,88.41
2022-12-24T18:49:01.891Z,87.90
2022-12-24T18:51:31.119Z,88.04
2022-12-24T18:53:59.049Z,89.51
2022-12-24T18:56:27.771Z,89.01
2022-12-24T18:58:57.801Z,89.12
2022-12-24T19:01:28.616Z,90.14
2022-12-24T19:03:56.967Z,90.03
2022-12-24T19:06:25.261Z,89.22
2022-12-24T19:09:01.804Z,89.22
2022-12-24T19:11:34.671Z,89.70
2022-12-24T19:14:04.123Z,89.51
2022-12-24T19:16:36.419Z,89.56
2022-12-24T19:19:05.712Z,89.79
2022-12-24T19:21:33.809Z,89.12
2022-12-24T19:24:02.044Z,89.23
2022-12-24T19:26:29.831Z,88.24
2022-12-24T19:29:00.241Z,88.27
2022-12-24T19:31:29.403Z,88.81
2022-12-24T19:33:59.035Z,88.34
2022-12-24T19:36:28.908Z,88.86
2022-12-24T19:38:57.037Z,88.42
2022-12-24T19:41:28.191Z,88.53
2022-12-24T19:43:57.756Z,88.89
2022-12-24T19:46:27.955Z,89.05
2022-12-24T19:48:59.300Z,88.72
2022-12-24T19:51:28.394Z,88.50
2022-12-24T19:53:57.576Z,88.64
2022-12-24T19:56:27.769Z,88.71
2022-12-24T19:58:57.318Z,88.47
2022-12-24T20:01:29.954Z,89.08
2022-12-24T20:04:00.138Z,88.79
2022-12-24T20:06:33.023Z,89.30
2022-12-24T20:09:01.567Z,89.23
2022-12-24T20:11:30.190Z,89.94
2022-12-24T20:13:59.554Z,90.53
2022-12-24T20:16:31.135Z,90.24
2022-12-24T20:19:03.273Z,90.24
2022-12-24T20:21:31.136Z,90.14
2022-12-24T20:23:59.149Z,90.32
2022-12-24T20:26:28.753Z,90.74
2022-12-24T20:28:56.653Z,90.53
2022-12-24T20:31:26.483Z,90.40
2022-12-24T20:33:54.948Z,90.75
2022-12-24T20:36:25.006Z,90.13
2022-12-24T20:38:53.470Z,91.49
2022-12-24T20:41:23.531Z,91.60
2022-12-24T20:43:52.095Z,90.59
2022-12-24T20:46:22.534Z,89.84
2022-12-24T20:48:50.955Z,89.87
2022-12-24T20:51:24.776Z,89.28
2022-12-24T20:53:56.288Z,89.14
2022-12-24T20:56:24.435Z,88.95
2022-12-24T20:58:52.389Z,90.30
2022-12-24T21:01:24.279Z,90.72
2022-12-24T21:03:53.255Z,90.60
2022-12-24T21:06:21.442Z,90.15
2022-12-24T21:08:50.592Z,90.39
2022-12-24T21:11:37.490Z,89.82
2022-12-24T21:14:05.712Z,88.66
2022-12-24T21:16:34.907Z,88.70
2022-12-24T21:19:03.435Z,88.00
2022-12-24T21:21:31.305Z,88.09
2022-12-24T21:23:59.167Z,88.24
2022-12-24T21:26:28.385Z,89.13
2022-12-24T21:28:56.225Z,88.56
2022-12-24T21:31:24.131Z,93.95
2022-12-24T21:33:52.098Z,91.13
2022-12-24T21:36:20.739Z,89.58
2022-12-24T21:38:48.935Z,87.98
2022-12-24T21:41:19.728Z,87.57
2022-12-24T21:43:48.892Z,88.33
2022-12-24T21:46:23.009Z,88.47
2022-12-24T21:49:09.568Z,88.69
2022-12-24T21:51:38.790Z,89.06
2022-12-24T21:54:24.157Z,89.34
2022-12-24T21:57:10.299Z,88.40
2022-12-24T21:59:39.927Z,88.40
2022-12-24T22:02:08.473Z,87.59
2022-12-24T22:04:36.360Z,87.41
2022-12-24T22:07:21.933Z,87.91
2022-12-24T22:10:18.685Z,87.92
2022-12-24T22:12:46.431Z,87.99
2022-12-24T22:15:15.520Z,89.20
2022-12-24T22:17:43.304Z,88.82
2022-12-24T22:20:11.683Z,89.61
2022-12-24T22:22:39.456Z,89.51
2022-12-24T22:25:07.863Z,89.69
2022-12-24T22:27:36.062Z,89.78
2022-12-24T22:30:04.092Z,89.30
2022-12-24T22:32:33.600Z,89.21
2022-12-24T22:35:01.483Z,89.07
2022-12-24T22:37:29.404Z,89.08
2022-12-24T22:39:57.193Z,90.08
2022-12-24T22:42:25.046Z,89.74
2022-12-24T22:44:52.815Z,90.06
2022-12-24T22:47:20.601Z,89.70
2022-12-24T22:49:50.297Z,89.20
2022-12-24T22:52:18.150Z,89.58
2022-12-24T22:54:46.130Z,89.01
2022-12-24T22:57:14.021Z,89.03
2022-12-24T22:59:41.894Z,89.41
2022-12-24T23:02:09.935Z,89.52
2022-12-24T23:04:38.745Z,89.70
2022-12-24T23:07:10.205Z,88.70
2022-12-24T23:09:38.432Z,89.25
2022-12-24T23:12:06.973Z,89.71
2022-12-24T23:14:52.295Z,88.67
2022-12-24T23:17:20.211Z,88.47
2022-12-24T23:19:48.145Z,88.86
2022-12-24T23:22:17.387Z,88.92
2022-12-24T23:24:45.337Z,88.69
2022-12-24T23:27:13.358Z,88.96
2022-12-24T23:29:41.244Z,89.89
2022-12-24T23:32:09.097Z,89.40
2022-12-24T23:34:36.896Z,88.82
2022-12-24T23:37:04.757Z,87.49
2022-12-24T23:39:33.871Z,86.77
2022-12-24T23:42:01.791Z,87.06
2022-12-24T23:44:32.542Z,87.32
2022-12-24T23:47:00.928Z,87.22
2022-12-24T23:49:28.901Z,88.02
2022-12-24T23:51:56.763Z,88.65
2022-12-24T23:54:24.636Z,88.88
2022-12-24T23:56:53.863Z,88.37
2022-12-24T23:59:21.767Z,88.00
